createdAt,value
2022-11-22T05:20:43.762Z,7.86
2022-11-22T05:23:10.099Z,7.89
2022-11-22T05:25:36.463Z,7.92
2022-11-22T05:28:03.074Z,7.95
2022-11-22T05:30:29.439Z,7.97
2022-11-22T05:32:55.792Z,8.00
2022-11-22T05:35:22.149Z,8.41
2022-11-22T05:37:48.527Z,10.63
2022-11-22T05:40:14.838Z,12.10
2022-11-22T05:42:41.255Z,12.11
2022-11-22T05:45:07.598Z,11.57
2022-11-22T05:47:33.978Z,11.18
2022-11-22T05:50:00.341Z,10.83
2022-11-22T05:52:26.684Z,10.21
2022-11-22T05:54:53.002Z,9.81
2022-11-22T05:57:19.366Z,9.61
2022-11-22T05:59:45.667Z,9.50
2022-11-22T06:02:12.161Z,9.49
2022-11-22T06:04:38.414Z,9.54
2022-11-22T06:07:09.769Z,9.64
2022-11-22T06:09:31.304Z,9.71
2022-11-22T06:11:57.516Z,9.80
2022-11-22T06:14:23.865Z,9.98
2022-11-22T06:16:50.199Z,10.10
2022-11-22T06:19:16.555Z,10.19
2022-11-22T06:21:43.017Z,10.36
2022-11-22T06:24:09.374Z,10.60
2022-11-22T06:26:39.292Z,10.81
2022-11-22T06:29:02.187Z,11.03
2022-11-22T06:31:28.503Z,11.05
2022-11-22T06:33:54.837Z,11.04
2022-11-22T06:36:21.309Z,11.09
2022-11-22T06:38:47.668Z,11.11
2022-11-22T06:41:14.000Z,11.23
2022-11-22T06:43:43.780Z,11.37
2022-11-22T06:46:06.776Z,11.47
2022-11-22T06:48:33.166Z,11.60
2022-11-22T06:50:59.508Z,11.65
2022-11-22T06:53:45.684Z,11.81
2022-11-22T06:55:56.846Z,12.02
2022-11-22T06:58:18.543Z,12.11
2022-11-22T07:00:44.976Z,12.27
2022-11-22T07:03:11.209Z,12.39
2022-11-22T07:05:37.597Z,12.60
2022-11-22T07:08:10.388Z,12.89
2022-11-22T07:10:30.415Z,13.14
2022-11-22T07:12:56.672Z,13.22
2022-11-22T07:15:23.028Z,13.33
2022-11-22T07:17:49.423Z,13.56
2022-11-22T07:20:15.786Z,13.86
2022-11-22T07:22:42.110Z,13.83
2022-11-22T07:25:08.488Z,13.87
2022-11-22T07:27:34.840Z,13.99
2022-11-22T07:30:01.227Z,14.20
2022-11-22T07:32:27.541Z,14.38
2022-11-22T07:34:53.935Z,14.30
2022-11-22T07:37:20.301Z,14.34
2022-11-22T07:39:46.655Z,14.64
2022-11-22T07:42:13.008Z,14.70
2022-11-22T07:44:39.350Z,14.94
2022-11-22T07:47:05.734Z,15.13
2022-11-22T07:49:32.427Z,15.46
2022-11-22T07:51:58.491Z,15.41
2022-11-22T07:54:24.857Z,15.43
2022-11-22T07:56:51.196Z,15.07
2022-11-22T07:59:17.539Z,14.49
2022-11-22T08:01:43.913Z,13.88
2022-11-22T08:04:10.213Z,13.49
2022-11-22T08:06:36.535Z,13.17
2022-11-22T08:09:02.903Z,12.90
2022-11-22T08:11:29.281Z,12.88
2022-11-22T08:13:55.663Z,13.18
2022-11-22T08:16:21.975Z,13.39
2022-11-22T08:18:48.342Z,13.36
2022-11-22T08:21:14.670Z,13.11
2022-11-22T08:23:41.150Z,13.01
2022-11-22T08:26:07.477Z,13.12
2022-11-22T08:28:33.937Z,13.20
2022-11-22T08:31:00.282Z,13.10
2022-11-22T08:33:26.670Z,12.81
2022-11-22T08:35:53.014Z,12.51
2022-11-22T08:38:19.378Z,12.20
2022-11-22T08:40:45.730Z,12.06
2022-11-22T08:43:12.100Z,11.92
2022-11-22T08:45:38.472Z,11.71
2022-11-22T08:48:04.808Z,11.61
2022-11-22T08:50:31.188Z,11.46
2022-11-22T08:52:57.558Z,11.32
2022-11-22T08:55:23.884Z,11.22
2022-11-22T08:57:50.285Z,11.10
2022-11-22T09:00:16.612Z,11.02
2022-11-22T09:02:42.977Z,10.93
2022-11-22T09:05:09.302Z,10.89
2022-11-22T09:10:02.007Z,10.81
2022-11-22T09:12:28.367Z,10.80
2022-11-22T09:14:54.716Z,10.74
2022-11-22T09:17:21.056Z,10.76
2022-11-22T09:19:47.374Z,10.73
2022-11-22T09:22:13.723Z,10.67
2022-11-22T09:24:40.051Z,10.63
2022-11-22T09:27:06.412Z,10.62
2022-11-22T09:29:33.179Z,10.64
2022-11-22T09:31:59.114Z,10.64
2022-11-22T09:34:25.428Z,10.66
2022-11-22T09:36:51.783Z,10.71
2022-11-22T09:39:18.156Z,10.77
2022-11-22T09:41:44.511Z,10.79
2022-11-22T09:44:10.836Z,10.77
2022-11-22T09:46:37.185Z,10.76
2022-11-22T09:49:03.508Z,10.72
2022-11-22T09:51:29.972Z,10.79
2022-11-22T09:53:56.292Z,10.87
2022-11-22T09:56:22.687Z,10.98
2022-11-22T09:58:49.024Z,11.11
2022-11-22T10:01:15.504Z,11.18
2022-11-22T10:03:41.764Z,11.24
2022-11-22T10:06:08.165Z,11.28
2022-11-22T10:08:34.502Z,11.24
2022-11-22T10:11:00.865Z,11.12
2022-11-22T10:13:27.207Z,11.10
2022-11-22T10:15:53.570Z,11.12
2022-11-22T10:18:19.908Z,11.15
2022-11-22T10:20:48.974Z,11.15
2022-11-22T10:23:12.605Z,11.17
2022-11-22T10:25:38.985Z,11.18
2022-11-22T10:28:05.312Z,11.18
2022-11-22T10:30:31.687Z,11.20
2022-11-22T10:32:58.022Z,11.23
2022-11-22T10:35:24.367Z,11.21
2022-11-22T10:37:50.704Z,11.20
2022-11-22T10:40:17.100Z,11.19
2022-11-22T10:42:43.420Z,11.23
2022-11-22T10:45:09.764Z,11.25
2022-11-22T10:47:36.119Z,11.28
2022-11-22T10:50:02.498Z,11.29
2022-11-22T10:52:28.860Z,11.32
2022-11-22T10:54:55.203Z,11.33
2022-11-22T10:57:21.539Z,11.33
2022-11-22T10:59:47.879Z,11.31
2022-11-22T11:02:14.205Z,11.27
2022-11-22T11:04:40.565Z,11.25
2022-11-22T11:07:14.437Z,11.25
2022-11-22T11:10:10.168Z,11.28
2022-11-22T11:11:59.854Z,11.29
2022-11-22T11:14:26.209Z,11.30
2022-11-22T11:16:52.551Z,11.29
2022-11-22T11:19:18.898Z,11.26
2022-11-22T11:21:45.258Z,11.25
2022-11-22T11:24:11.584Z,11.20
2022-11-22T11:26:37.915Z,11.15
2022-11-22T11:29:04.281Z,11.15
2022-11-22T11:31:30.627Z,11.13
2022-11-22T11:33:57.032Z,11.13
2022-11-22T11:36:23.346Z,11.14
2022-11-22T11:38:49.683Z,11.12
2022-11-22T11:41:16.023Z,11.09
2022-11-22T11:43:42.352Z,11.05
2022-11-22T11:46:08.735Z,11.04
2022-11-22T11:48:35.100Z,11.04
2022-11-22T11:51:01.454Z,11.03
2022-11-22T11:53:27.808Z,11.02
2022-11-22T11:55:54.186Z,10.97
2022-11-22T11:58:20.556Z,10.92
2022-11-22T12:00:46.892Z,10.81
2022-11-22T12:03:13.236Z,10.74
2022-11-22T12:05:39.626Z,10.72
2022-11-22T12:08:05.944Z,10.74
2022-11-22T12:10:32.331Z,10.74
2022-11-22T12:13:04.023Z,10.76
2022-11-22T12:15:25.079Z,10.73
2022-11-22T12:17:51.431Z,10.66
2022-11-22T12:20:17.786Z,10.62
2022-11-22T12:22:50.052Z,10.58
2022-11-22T12:25:31.533Z,10.54
2022-11-22T12:27:36.868Z,10.52
2022-11-22T12:30:03.234Z,10.49
2022-11-22T12:32:29.558Z,10.52
2022-11-22T12:34:55.930Z,10.55
2022-11-22T12:37:22.290Z,10.56
2022-11-22T12:39:48.632Z,10.55
2022-11-22T12:42:20.057Z,10.54
2022-11-22T12:44:41.299Z,10.53
2022-11-22T12:47:07.670Z,10.52
2022-11-22T12:49:34.009Z,10.51
2022-11-22T12:52:00.370Z,10.50
2022-11-22T12:54:26.687Z,10.49
2022-11-22T12:56:53.041Z,10.47
2022-11-22T12:59:19.466Z,10.47
2022-11-22T13:01:45.925Z,10.46
2022-11-22T13:04:12.148Z,10.46
2022-11-22T13:06:38.490Z,10.45
2022-11-22T13:09:04.846Z,10.44
2022-11-22T13:11:31.185Z,10.43
2022-11-22T13:13:57.575Z,10.43
2022-11-22T13:16:23.919Z,10.43
2022-11-22T13:18:50.238Z,10.39
2022-11-22T13:21:16.611Z,10.37
2022-11-22T13:23:42.952Z,10.35
2022-11-22T13:26:14.749Z,10.34
2022-11-22T13:28:35.665Z,10.33
2022-11-22T13:31:02.006Z,10.34
2022-11-22T13:33:28.356Z,10.33
2022-11-22T13:35:54.753Z,10.32
2022-11-22T13:38:21.069Z,10.35
2022-11-22T13:40:47.437Z,10.34
2022-11-22T13:43:17.898Z,10.31
2022-11-22T13:45:40.138Z,10.28
2022-11-22T13:48:06.483Z,10.28
2022-11-22T13:50:32.830Z,10.28
2022-11-22T13:52:59.175Z,10.29
2022-11-22T13:55:25.517Z,10.29
2022-11-22T13:57:51.877Z,10.27
2022-11-22T14:00:18.242Z,10.25
2022-11-22T14:02:44.563Z,10.25
2022-11-22T14:05:10.938Z,10.26
2022-11-22T14:07:37.343Z,10.29
2022-11-22T14:10:03.635Z,10.29
2022-11-22T14:12:29.992Z,10.28
2022-11-22T14:14:56.340Z,10.27
2022-11-22T14:17:22.697Z,10.33
2022-11-22T14:19:49.062Z,10.32
2022-11-22T14:22:15.397Z,10.27
2022-11-22T14:24:41.761Z,10.25
2022-11-22T14:27:08.097Z,10.24
2022-11-22T14:29:34.452Z,10.23
2022-11-22T14:32:00.790Z,10.22
2022-11-22T14:34:27.132Z,10.21
2022-11-22T14:36:53.454Z,10.21
2022-11-22T14:39:19.797Z,10.18
2022-11-22T14:41:46.181Z,10.16
2022-11-22T14:44:12.528Z,10.18
2022-11-22T14:46:52.768Z,10.19
2022-11-22T14:49:05.211Z,10.17
2022-11-22T14:51:32.723Z,10.14
2022-11-22T14:53:57.918Z,10.11
2022-11-22T14:56:24.266Z,10.09
2022-11-22T14:58:50.658Z,10.09
2022-11-22T15:01:16.998Z,10.10
2022-11-22T15:03:43.342Z,10.13
2022-11-22T15:09:16.116Z,10.09
2022-11-22T15:09:17.237Z,10.11
2022-11-22T15:11:02.412Z,10.06
2022-11-22T15:13:28.748Z,10.05
2022-11-22T15:57:26.026Z,10.02
2022-11-22T15:59:49.341Z,10.04
2022-11-22T16:02:15.686Z,10.05
2022-11-22T16:04:42.024Z,10.04
2022-11-22T16:07:08.401Z,10.02
2022-11-22T16:09:34.710Z,10.00
2022-11-22T16:12:01.032Z,10.01
2022-11-22T16:14:27.412Z,10.04
2022-11-22T16:16:53.755Z,10.04
2022-11-22T16:19:20.108Z,10.05
2022-11-22T16:21:46.455Z,10.07
2022-11-22T16:24:12.816Z,10.07
2022-11-22T16:26:39.155Z,10.08
2022-11-22T16:29:05.520Z,10.09
2022-11-22T16:31:31.848Z,10.08
2022-11-22T16:33:58.239Z,10.03
2022-11-22T16:36:24.583Z,9.96
2022-11-22T16:38:50.936Z,9.90
2022-11-22T16:41:17.265Z,9.88
2022-11-22T16:43:43.630Z,9.85
2022-11-22T16:46:09.965Z,9.84
2022-11-22T16:48:36.381Z,9.83
2022-11-22T16:51:02.682Z,9.82
2022-11-22T16:53:29.042Z,9.78
2022-11-22T16:55:55.384Z,9.74
2022-11-22T16:58:21.753Z,9.72
2022-11-22T17:00:48.179Z,9.77
2022-11-22T17:03:14.466Z,10.87
2022-11-22T17:05:40.799Z,11.11
2022-11-22T17:08:07.139Z,11.00
2022-11-22T17:10:33.508Z,10.87
2022-11-22T17:12:59.860Z,10.74
2022-11-22T17:15:26.185Z,10.64
2022-11-22T17:17:52.568Z,10.57
2022-11-22T17:20:18.936Z,10.52
2022-11-22T17:22:45.311Z,10.48
2022-11-22T17:25:11.648Z,10.45
2022-11-22T17:27:38.015Z,10.43
2022-11-22T17:30:04.334Z,10.41
2022-11-22T17:32:30.699Z,10.40
2022-11-22T17:34:57.031Z,10.39
2022-11-22T17:37:23.400Z,10.38
2022-11-22T17:39:49.758Z,10.43
2022-11-22T17:42:16.125Z,10.49
2022-11-22T17:44:42.457Z,10.47
2022-11-22T17:47:08.839Z,10.47
2022-11-22T17:49:35.612Z,10.44
2022-11-22T17:52:01.901Z,10.42
2022-11-22T17:54:28.241Z,10.53
2022-11-22T17:56:54.577Z,10.51
2022-11-22T17:59:20.940Z,10.50
2022-11-22T18:01:47.279Z,10.47
2022-11-22T18:04:13.628Z,10.45
2022-11-22T18:06:39.973Z,10.42
2022-11-22T18:09:06.317Z,10.40
2022-11-22T18:11:32.657Z,10.39
2022-11-22T18:13:59.038Z,10.35
2022-11-22T18:16:25.407Z,10.36
2022-11-22T18:18:59.253Z,10.35
2022-11-22T18:21:18.094Z,10.34
2022-11-22T18:23:44.435Z,10.34
2022-11-22T18:26:41.349Z,10.34
2022-11-22T18:28:37.124Z,10.34
2022-11-22T18:31:03.564Z,10.34
2022-11-22T18:33:33.513Z,10.32
2022-11-22T18:35:56.647Z,10.33
2022-11-22T18:38:22.602Z,10.33
2022-11-22T18:40:48.929Z,10.33
2022-11-22T18:43:15.301Z,10.33
2022-11-22T18:45:41.681Z,10.34
2022-11-22T18:48:08.021Z,10.35
2022-11-22T18:50:34.394Z,10.35
2022-11-22T18:53:00.767Z,10.36
2022-11-22T18:55:27.162Z,10.37
2022-11-22T18:57:53.497Z,10.36
2022-11-22T19:00:19.868Z,10.38
2022-11-22T19:02:46.180Z,10.39
2022-11-22T19:05:12.525Z,10.38
2022-11-22T19:07:38.886Z,10.40
2022-11-22T19:10:05.212Z,10.40
2022-11-22T19:12:31.556Z,10.41
2022-11-22T19:14:57.893Z,10.42
2022-11-22T19:17:24.235Z,10.43
2022-11-22T19:19:50.595Z,10.44
2022-11-22T19:22:16.914Z,10.44
2022-11-22T19:24:47.182Z,10.46
2022-11-22T19:27:09.604Z,10.47
2022-11-22T19:29:36.086Z,10.48
2022-11-22T19:32:02.329Z,10.49
2022-11-22T19:34:28.690Z,10.49
2022-11-22T19:36:55.023Z,10.50
2022-11-22T19:39:21.372Z,10.51
2022-11-22T19:41:47.719Z,10.51
2022-11-22T19:44:14.060Z,10.52
2022-11-22T19:46:40.487Z,10.54
2022-11-22T19:49:06.854Z,10.56
2022-11-22T19:51:33.170Z,10.55
2022-11-22T19:53:59.537Z,10.57
2022-11-22T19:56:25.909Z,10.59
2022-11-22T19:58:52.242Z,10.60
2022-11-22T20:01:18.657Z,10.60
2022-11-22T20:03:44.927Z,10.61
2022-11-22T20:06:11.260Z,10.62
2022-11-22T20:08:37.676Z,10.62
2022-11-22T20:11:04.005Z,10.63
2022-11-22T20:13:30.372Z,10.62
2022-11-22T20:15:56.742Z,10.62
2022-11-22T20:18:23.086Z,10.63
2022-11-22T20:20:49.438Z,10.63
2022-11-22T20:23:15.775Z,10.63
2022-11-22T20:25:42.092Z,10.64
2022-11-22T20:28:08.441Z,10.64
2022-11-22T20:30:34.797Z,10.64
2022-11-22T20:33:01.170Z,10.65
2022-11-22T20:35:27.503Z,10.66
2022-11-22T20:37:53.912Z,10.65
2022-11-22T20:40:20.250Z,10.63
2022-11-22T20:42:46.590Z,10.64
2022-11-22T20:45:12.972Z,10.63
2022-11-22T20:47:39.313Z,10.63
2022-11-22T20:50:05.658Z,10.62
2022-11-22T20:52:32.037Z,10.61
2022-11-22T20:55:04.618Z,10.59
2022-11-22T20:57:24.699Z,10.61
2022-11-22T20:59:51.041Z,10.59
2022-11-22T21:02:17.382Z,10.59
2022-11-22T21:04:43.700Z,10.55
2022-11-22T21:07:10.073Z,10.58
2022-11-22T21:09:36.393Z,10.57
2022-11-22T21:12:02.724Z,10.56
2022-11-22T21:14:29.251Z,10.58
2022-11-22T21:16:55.448Z,10.57
2022-11-22T21:19:21.765Z,10.57
2022-11-22T21:21:48.106Z,10.56
2022-11-22T21:24:14.427Z,10.57
2022-11-22T21:26:40.766Z,10.57
2022-11-22T21:29:10.249Z,10.57
2022-11-22T21:31:33.472Z,10.59
2022-11-22T21:33:59.807Z,10.60
2022-11-22T21:36:26.149Z,10.60
2022-11-22T21:38:52.495Z,10.61
2022-11-22T21:43:50.152Z,10.62
2022-11-22T21:46:11.536Z,10.62
2022-11-22T21:48:37.889Z,10.64
2022-11-22T21:51:04.256Z,10.65
2022-11-22T21:53:30.574Z,10.66
2022-11-22T21:55:56.948Z,10.66
2022-11-22T21:58:23.289Z,10.67
2022-11-22T22:00:49.625Z,10.68
2022-11-22T22:03:15.964Z,10.68
2022-11-22T22:05:42.338Z,10.70
2022-11-22T22:08:08.691Z,10.71
2022-11-22T22:10:35.030Z,10.71
2022-11-22T22:13:01.343Z,10.72
2022-11-22T22:15:27.706Z,10.73
2022-11-22T22:17:54.140Z,10.72
2022-11-22T22:20:20.466Z,10.72
2022-11-22T22:22:46.809Z,10.72
2022-11-22T22:25:13.148Z,10.73
2022-11-22T22:27:39.485Z,10.72
2022-11-22T22:30:05.880Z,10.70
2022-11-22T22:32:32.218Z,10.69
2022-11-22T22:34:58.554Z,10.68
2022-11-22T22:37:24.934Z,10.68
2022-11-22T22:39:51.879Z,10.66
2022-11-22T22:42:17.604Z,10.64
2022-11-22T22:44:43.977Z,10.64
2022-11-22T22:47:10.317Z,10.62
2022-11-22T22:49:36.683Z,10.60
2022-11-22T22:52:03.019Z,10.59
2022-11-22T22:54:29.384Z,10.57
2022-11-22T22:56:55.745Z,10.56
2022-11-22T22:59:22.107Z,10.54
2022-11-22T23:01:48.456Z,10.53
2022-11-22T23:04:14.833Z,10.52
2022-11-22T23:06:41.168Z,10.50
2022-11-22T23:09:07.507Z,10.50
2022-11-22T23:11:33.850Z,10.50
2022-11-22T23:14:00.221Z,10.50
2022-11-22T23:16:26.554Z,10.50
2022-11-22T23:18:52.895Z,10.47
2022-11-22T23:21:19.216Z,10.50
2022-11-22T23:23:45.561Z,10.51
2022-11-22T23:26:11.879Z,10.52
2022-11-22T23:28:38.251Z,10.52
2022-11-22T23:31:04.586Z,10.53
2022-11-22T23:33:30.958Z,10.54
2022-11-22T23:35:57.282Z,10.55
2022-11-22T23:38:23.622Z,10.57
2022-11-22T23:40:49.992Z,10.57
2022-11-22T23:43:16.351Z,10.58
2022-11-22T23:45:42.664Z,10.58
2022-11-22T23:48:09.016Z,10.59
2022-11-22T23:50:37.507Z,10.59
2022-11-22T23:53:01.747Z,10.60
2022-11-22T23:55:28.135Z,10.60
2022-11-22T23:57:54.493Z,10.60
